Time;durP1;ratioP1;P1;durP2;ratioP2;P2;SDS_P1;SDS_P2;PMS_P1;PMS_P2;Temp;Humidity;BMP_temperature;BMP_pressure;BME280_temperature;BME280_humidity;BME280_pressure;Samples;Min_cycle;Max_cycle;Signal;HPM_P1;HPM_P2
2023/01/05 00:00:36;;;;;;;8.27;3.70;;;10.00;1.00;;;;;;6260142;28;20328;-56
2023/01/05 00:03:40;;;;;;;4.87;3.57;;;10.00;1.00;;;;;;6274606;28;20253;-55
2023/01/05 00:06:44;;;;;;;6.07;3.87;;;10.00;1.00;;;;;;6277094;28;20241;-55
2023/01/05 00:09:47;;;;;;;3.67;3.33;;;10.00;1.00;;;;;;6283785;28;20241;-57
2023/01/05 00:22:55;;;;;;;5.40;3.90;;;10.00;1.00;;;;;;6258828;28;20230;-54
2023/01/05 00:25:58;;;;;;;5.87;4.00;;;10.00;1.00;;;;;;6260573;28;20241;-56
2023/01/05 00:29:01;;;;;;;10.73;3.83;;;10.00;1.00;;;;;;6275069;28;20237;-56
2023/01/05 00:32:03;;;;;;;4.87;3.60;;;10.00;1.00;;;;;;6273377;28;20702;-56
2023/01/05 00:35:07;;;;;;;7.40;3.63;;;10.00;1.00;;;;;;6283841;28;20233;-55
2023/01/05 00:38:12;;;;;;;4.13;3.73;;;10.00;1.00;;;;;;6278403;28;20249;-56
2023/01/05 00:41:15;;;;;;;9.00;3.80;;;10.00;1.00;;;;;;6280922;28;20236;-55
2023/01/05 00:44:18;;;;;;;3.53;3.30;;;10.10;1.00;;;;;;6260856;28;20245;-56
2023/01/05 00:47:20;;;;;;;7.90;3.87;;;10.20;1.00;;;;;;6258204;28;20249;-55
2023/01/05 00:50:23;;;;;;;5.57;3.63;;;10.20;1.00;;;;;;6266262;28;20410;-56
2023/01/05 00:53:28;;;;;;;4.57;3.53;;;10.20;1.00;;;;;;6283742;28;20629;-55
2023/01/05 00:56:31;;;;;;;8.23;4.07;;;10.20;1.00;;;;;;6283175;28;20236;-57
2023/01/05 00:59:34;;;;;;;4.33;3.70;;;10.20;1.00;;;;;;6265442;28;20237;-55
2023/01/05 01:02:37;;;;;;;8.17;4.37;;;10.20;1.00;;;;;;6281658;28;20237;-56
2023/01/05 01:05:40;;;;;;;9.10;4.10;;;10.20;1.00;;;;;;6282027;28;20867;-55
2023/01/05 01:08:44;;;;;;;7.10;3.97;;;10.20;1.00;;;;;;6280657;28;20803;-56
2023/01/05 01:11:47;;;;;;;6.47;3.90;;;10.20;1.00;;;;;;6283686;28;20242;-56
2023/01/05 01:14:51;;;;;;;8.80;4.23;;;10.20;1.00;;;;;;6279768;28;20236;-56
2023/01/05 01:17:54;;;;;;;9.43;4.10;;;10.20;1.00;;;;;;6257428;28;20610;-54
2023/01/05 01:20:57;;;;;;;6.17;4.03;;;10.20;1.00;;;;;;6259032;28;20242;-55
2023/01/05 01:24:01;;;;;;;8.93;3.97;;;10.20;1.00;;;;;;6263372;28;20238;-56
2023/01/05 01:27:04;;;;;;;9.93;4.40;;;10.20;1.00;;;;;;6283145;28;20583;-56
2023/01/05 01:30:09;;;;;;;10.00;4.67;;;10.30;1.00;;;;;;6287661;28;20604;-56
2023/01/05 01:33:12;;;;;;;7.73;4.27;;;10.20;1.00;;;;;;6287514;28;20225;-57
2023/01/05 01:36:15;;;;;;;9.50;3.90;;;10.20;1.00;;;;;;6271107;28;20234;-57
2023/01/05 01:39:19;;;;;;;6.03;3.77;;;10.20;1.00;;;;;;6285769;28;20648;-55
2023/01/05 01:42:23;;;;;;;5.50;3.63;;;10.20;1.00;;;;;;6287975;28;20244;-55
2023/01/05 01:45:26;;;;;;;9.10;4.33;;;10.30;1.00;;;;;;6271418;28;20242;-55
2023/01/05 01:48:29;;;;;;;5.17;4.00;;;10.20;1.00;;;;;;6262403;28;20242;-56
2023/01/05 01:51:35;;;;;;;4.63;4.10;;;10.20;1.00;;;;;;6262311;28;20248;-55
2023/01/05 01:54:40;;;;;;;8.33;3.90;;;10.10;1.00;;;;;;6262333;28;20249;-56
2023/01/05 01:57:44;;;;;;;7.17;4.33;;;10.20;1.00;;;;;;6261826;28;20387;-55
2023/01/05 02:00:48;;;;;;;7.83;3.87;;;10.20;1.00;;;;;;6262801;28;20387;-56
2023/01/05 02:03:51;;;;;;;6.73;3.70;;;10.20;1.00;;;;;;6275498;28;20233;-57
2023/01/05 02:06:54;;;;;;;8.07;3.50;;;10.20;1.00;;;;;;6277447;28;20233;-54
2023/01/05 02:09:58;;;;;;;5.80;4.30;;;10.20;1.00;;;;;;6288139;28;20635;-60
2023/01/05 02:13:11;;;;;;;6.40;3.70;;;10.20;1.00;;;;;;6266319;28;20467;-56
2023/01/05 02:16:24;;;;;;;5.53;3.87;;;10.30;1.00;;;;;;6262757;28;20242;-57
2023/01/05 02:20:21;;;;;;;7.23;3.80;;;10.30;1.00;;;;;;6262476;28;20248;-56
2023/01/05 02:23:53;;;;;;;5.70;3.50;;;10.40;1.00;;;;;;6251544;28;20233;-56
2023/01/05 02:27:27;;;;;;;3.43;3.23;;;10.30;1.00;;;;;;6260183;28;20875;-56
2023/01/05 02:31:00;;;;;;;6.90;3.57;;;10.30;1.00;;;;;;6264027;28;20323;-56
2023/01/05 02:34:14;;;;;;;4.57;4.17;;;10.30;1.00;;;;;;6287411;28;20790;-55
2023/01/05 02:37:24;;;;;;;6.80;3.60;;;10.30;1.00;;;;;;6273169;28;20230;-56
2023/01/05 02:40:32;;;;;;;9.30;3.40;;;10.20;1.00;;;;;;6286576;28;20248;-56
2023/01/05 02:43:35;;;;;;;5.37;3.50;;;10.20;1.00;;;;;;6287651;28;20233;-56
2023/01/05 02:46:40;;;;;;;5.03;3.30;;;10.20;1.00;;;;;;6267400;28;20230;-56
2023/01/05 02:49:43;;;;;;;6.30;4.13;;;10.30;1.00;;;;;;6262380;28;20253;-56
2023/01/05 02:52:56;;;;;;;4.43;3.80;;;10.30;1.00;;;;;;6261594;28;20238;-56
2023/01/05 02:56:05;;;;;;;6.40;3.57;;;10.20;1.00;;;;;;6260836;28;20264;-56
2023/01/05 02:59:14;;;;;;;7.20;3.50;;;10.30;1.00;;;;;;6261193;28;20723;-56
2023/01/05 03:02:22;;;;;;;8.20;4.00;;;10.30;1.00;;;;;;6274332;28;20730;-55
2023/01/05 03:05:31;;;;;;;6.57;3.90;;;10.40;1.00;;;;;;6274551;28;20634;-57
2023/01/05 03:08:39;;;;;;;5.93;3.83;;;10.30;1.00;;;;;;6277940;28;20251;-55
2023/01/05 03:15:09;;;;;;;6.33;3.80;;;10.30;1.00;;;;;;6250750;28;20730;-55
2023/01/05 03:18:16;;;;;;;4.60;3.53;;;10.30;1.00;;;;;;6261112;28;20256;-56
2023/01/05 03:21:20;;;;;;;5.87;3.97;;;10.30;1.00;;;;;;6260673;28;20222;-55
2023/01/05 03:38:10;;;;;;;7.03;4.00;;;10.20;1.00;;;;;;6273667;28;20229;-55
2023/01/05 03:41:22;;;;;;;4.30;3.90;;;10.30;1.00;;;;;;6261440;28;20609;-56
2023/01/05 03:44:25;;;;;;;7.80;4.10;;;10.30;1.00;;;;;;6271744;28;20241;-56
2023/01/05 03:47:28;;;;;;;10.70;3.90;;;10.30;1.00;;;;;;6265187;28;20757;-56
2023/01/05 03:50:32;;;;;;;4.23;3.30;;;10.30;1.00;;;;;;6260439;28;20690;-57
2023/01/05 03:53:35;;;;;;;3.83;3.30;;;10.30;1.00;;;;;;6259766;28;20234;-56
2023/01/05 03:56:38;;;;;;;4.70;3.30;;;10.30;1.00;;;;;;6258026;28;20230;-57
2023/01/05 03:59:41;;;;;;;5.00;3.33;;;10.30;1.00;;;;;;6274663;28;20823;-57
2023/01/05 04:02:44;;;;;;;5.17;3.40;;;10.40;1.00;;;;;;6286229;28;20233;-55
2023/01/05 04:05:48;;;;;;;3.33;3.07;;;10.30;1.00;;;;;;6281096;28;20229;-57
2023/01/05 04:08:51;;;;;;;6.13;3.73;;;10.30;1.00;;;;;;6283952;28;20237;-55
2023/01/05 04:11:54;;;;;;;3.17;2.97;;;10.30;1.00;;;;;;6281086;28;20241;-56
2023/01/05 04:14:57;;;;;;;3.77;3.00;;;10.20;1.00;;;;;;6260618;28;20234;-56
2023/01/05 04:18:00;;;;;;;3.83;3.20;;;10.20;1.00;;;;;;6259181;28;20610;-56
2023/01/05 04:21:06;;;;;;;5.47;4.07;;;10.30;1.00;;;;;;6259292;28;20273;-56
2023/01/05 04:24:09;;;;;;;7.37;3.00;;;10.30;1.00;;;;;;6279920;28;20270;-56
2023/01/05 04:27:12;;;;;;;4.50;3.30;;;10.30;1.00;;;;;;6269464;28;20238;-56
2023/01/05 04:30:15;;;;;;;4.17;3.17;;;10.30;1.00;;;;;;6249584;28;20238;-57
2023/01/05 04:33:19;;;;;;;5.33;3.00;;;10.30;1.00;;;;;;6253128;28;20230;-55
2023/01/05 04:36:23;;;;;;;4.13;3.30;;;10.20;1.00;;;;;;6283272;28;20232;-56
2023/01/05 04:39:26;;;;;;;3.50;3.10;;;10.20;1.00;;;;;;6277507;28;20644;-56
2023/01/05 04:42:29;;;;;;;3.30;3.00;;;10.10;1.00;;;;;;6275595;28;20466;-54
2023/01/05 04:45:32;;;;;;;4.40;3.10;;;10.00;1.00;;;;;;6282557;28;20244;-54
2023/01/05 04:48:35;;;;;;;3.97;3.40;;;9.90;1.00;;;;;;6275775;28;20233;-55
2023/01/05 04:51:40;;;;;;;4.07;3.30;;;9.90;1.00;;;;;;6276690;28;20233;-57
2023/01/05 04:54:43;;;;;;;3.43;3.10;;;9.90;1.00;;;;;;6282867;28;20239;-55
2023/01/05 04:57:46;;;;;;;4.70;3.17;;;9.90;1.00;;;;;;6278215;28;20346;-57
2023/01/05 05:00:50;;;;;;;4.70;3.30;;;10.00;1.00;;;;;;6283196;28;20591;-55
2023/01/05 05:03:53;;;;;;;6.00;3.37;;;10.00;1.00;;;;;;6285503;28;20307;-56
2023/01/05 05:06:57;;;;;;;6.80;2.93;;;10.00;1.00;;;;;;6277121;28;20740;-56
2023/01/05 05:10:00;;;;;;;5.03;3.30;;;9.90;1.00;;;;;;6289240;28;20248;-56
2023/01/05 05:13:03;;;;;;;2.83;2.63;;;9.90;1.00;;;;;;6281083;28;20256;-55
2023/01/05 05:16:07;;;;;;;3.17;2.93;;;9.90;1.00;;;;;;6271184;28;20776;-56
2023/01/05 05:19:10;;;;;;;3.10;2.90;;;9.90;1.00;;;;;;6289483;28;20458;-56
2023/01/05 05:22:15;;;;;;;3.33;3.13;;;9.90;1.00;;;;;;6285918;28;20694;-54
2023/01/05 05:25:18;;;;;;;4.70;3.43;;;9.90;1.00;;;;;;6285446;28;20233;-56
2023/01/05 05:28:26;;;;;;;3.33;3.03;;;9.80;1.00;;;;;;6283877;28;20473;-57
2023/01/05 05:31:29;;;;;;;3.70;3.40;;;9.80;1.00;;;;;;6284417;28;20229;-56
2023/01/05 05:34:32;;;;;;;3.60;3.30;;;9.70;1.00;;;;;;6275910;28;20868;-56
2023/01/05 05:37:37;;;;;;;3.90;3.60;;;9.70;1.00;;;;;;6279103;28;20262;-56
2023/01/05 05:40:40;;;;;;;7.03;3.67;;;9.60;1.00;;;;;;6286826;28;20233;-56
2023/01/05 05:43:42;;;;;;;5.67;3.47;;;9.70;1.00;;;;;;6287370;28;20598;-56
2023/01/05 05:46:45;;;;;;;6.60;3.40;;;9.70;1.00;;;;;;6281971;28;20237;-56
2023/01/05 05:49:48;;;;;;;5.70;3.90;;;9.70;1.00;;;;;;6280500;28;20661;-56
2023/01/05 05:52:53;;;;;;;4.87;3.53;;;9.70;1.00;;;;;;6283578;28;20229;-56
2023/01/05 05:55:56;;;;;;;4.67;3.10;;;9.70;1.00;;;;;;6276831;28;21542;-55
2023/01/05 05:58:58;;;;;;;3.10;3.00;;;9.60;1.00;;;;;;6283582;28;20283;-61
2023/01/05 06:02:03;;;;;;;5.97;3.67;;;9.60;1.00;;;;;;6288062;28;20390;-56
2023/01/05 06:05:07;;;;;;;7.60;3.40;;;9.60;1.00;;;;;;6281287;28;20237;-56
2023/01/05 06:08:12;;;;;;;4.07;3.67;;;9.60;1.00;;;;;;6286521;28;20706;-54
2023/01/05 06:11:15;;;;;;;4.90;3.50;;;9.60;1.00;;;;;;6288420;28;20244;-55
2023/01/05 06:14:18;;;;;;;3.00;2.80;;;9.60;1.00;;;;;;6288622;28;20371;-56
2023/01/05 06:17:22;;;;;;;2.70;2.50;;;9.60;1.00;;;;;;6288852;28;20474;-56
2023/01/05 06:20:25;;;;;;;2.57;2.47;;;9.50;1.00;;;;;;6294904;28;20221;-54
2023/01/05 06:23:29;;;;;;;2.50;2.50;;;9.40;1.00;;;;;;6286124;28;20494;-55
2023/01/05 06:26:32;;;;;;;2.67;2.57;;;9.20;1.00;;;;;;6281183;28;20237;-55
2023/01/05 06:29:35;;;;;;;2.50;2.50;;;9.20;1.00;;;;;;6294843;27;20244;-56
2023/01/05 06:32:38;;;;;;;2.40;2.30;;;9.20;1.00;;;;;;6281996;28;20237;-55
2023/01/05 06:35:41;;;;;;;2.73;2.73;;;9.10;1.00;;;;;;6270527;28;20241;-56
2023/01/05 06:38:46;;;;;;;2.83;2.73;;;9.10;1.00;;;;;;6293787;28;20244;-56
2023/01/05 06:41:49;;;;;;;2.80;2.70;;;9.10;1.00;;;;;;6280812;28;20237;-56
2023/01/05 06:44:52;;;;;;;2.83;2.63;;;9.10;1.00;;;;;;6284178;28;20237;-56
2023/01/05 06:47:56;;;;;;;2.90;2.70;;;9.10;1.00;;;;;;6284302;28;20256;-57
2023/01/05 06:50:59;;;;;;;3.00;2.90;;;9.20;1.00;;;;;;6286703;28;20237;-57
2023/01/05 06:54:03;;;;;;;2.60;2.50;;;9.20;1.00;;;;;;6269591;28;20303;-56
2023/01/05 06:57:07;;;;;;;3.57;2.90;;;9.20;1.00;;;;;;6283546;28;20244;-57
2023/01/05 07:00:12;;;;;;;3.63;2.90;;;9.20;1.00;;;;;;6284007;28;20608;-56
2023/01/05 07:03:15;;;;;;;2.60;2.50;;;9.30;1.00;;;;;;6282086;28;20724;-57
2023/01/05 07:06:18;;;;;;;3.73;2.90;;;9.30;1.00;;;;;;6279561;28;20241;-57
2023/01/05 07:09:22;;;;;;;2.90;2.80;;;9.30;1.00;;;;;;6278561;28;20320;-56
2023/01/05 07:12:26;;;;;;;2.67;2.57;;;9.30;1.00;;;;;;6286057;28;20237;-56
2023/01/05 07:15:28;;;;;;;2.70;2.60;;;9.40;1.00;;;;;;6285408;28;20237;-56
2023/01/05 07:18:31;;;;;;;2.40;2.40;;;9.40;1.00;;;;;;6285014;28;20263;-56
2023/01/05 07:21:34;;;;;;;3.00;2.80;;;9.40;1.00;;;;;;6279214;28;20240;-56
2023/01/05 07:24:39;;;;;;;2.53;2.43;;;9.40;1.00;;;;;;6277600;28;20836;-57
2023/01/05 07:27:42;;;;;;;2.63;2.60;;;9.50;1.00;;;;;;6290669;28;20244;-55
2023/01/05 07:30:51;;;;;;;2.60;2.60;;;9.40;1.00;;;;;;6286568;28;20237;-56
2023/01/05 07:33:54;;;;;;;2.40;2.40;;;9.40;1.00;;;;;;6284722;28;20237;-55
2023/01/05 07:36:57;;;;;;;2.53;2.40;;;9.40;1.00;;;;;;6283894;28;20245;-56
2023/01/05 07:40:01;;;;;;;2.40;2.40;;;9.30;1.00;;;;;;6281204;28;20233;-57
2023/01/05 07:43:04;;;;;;;2.50;2.40;;;9.30;1.00;;;;;;6283505;28;20248;-54
2023/01/05 07:46:07;;;;;;;2.63;2.50;;;9.20;1.00;;;;;;6283910;28;20237;-56
2023/01/05 07:49:10;;;;;;;2.47;2.47;;;9.20;1.00;;;;;;6281677;28;20237;-55
2023/01/05 07:52:13;;;;;;;2.23;2.23;;;9.20;1.00;;;;;;6284282;28;20328;-55
2023/01/05 07:55:18;;;;;;;2.50;2.50;;;9.20;1.00;;;;;;6278722;28;20241;-54
2023/01/05 07:58:20;;;;;;;2.27;2.17;;;9.20;1.00;;;;;;6291691;28;20233;-55
2023/01/05 08:01:23;;;;;;;2.40;2.40;;;9.20;1.00;;;;;;6290857;28;20221;-57
2023/01/05 08:04:27;;;;;;;2.30;2.20;;;9.10;1.00;;;;;;6278659;28;20241;-56
2023/01/05 08:07:30;;;;;;;2.47;2.47;;;9.10;1.00;;;;;;6287942;28;20822;-56
2023/01/05 08:10:34;;;;;;;2.50;2.40;;;9.10;1.00;;;;;;6284610;28;20229;-55
2023/01/05 08:16:54;;;;;;;2.30;2.30;;;9.10;1.00;;;;;;6278948;28;20233;-57
2023/01/05 08:19:57;;;;;;;2.17;2.17;;;9.10;1.00;;;;;;6287232;28;20682;-56
2023/01/05 08:23:00;;;;;;;2.70;2.60;;;9.20;1.00;;;;;;6282895;28;20233;-55
2023/01/05 08:26:06;;;;;;;2.43;2.33;;;9.20;1.00;;;;;;6290637;28;20240;-55
2023/01/05 08:29:09;;;;;;;2.50;2.40;;;9.20;1.00;;;;;;6287775;28;20241;-55
2023/01/05 08:32:12;;;;;;;2.37;2.20;;;9.20;1.00;;;;;;6281185;28;20229;-56
2023/01/05 08:35:15;;;;;;;2.70;2.43;;;9.10;1.00;;;;;;6278170;28;20233;-57
2023/01/05 08:38:21;;;;;;;2.13;2.13;;;9.10;1.00;;;;;;6283661;28;20522;-55
2023/01/05 08:41:27;;;;;;;2.30;2.20;;;9.20;1.00;;;;;;6272764;28;20229;-56
2023/01/05 08:44:30;;;;;;;2.40;2.40;;;9.10;1.00;;;;;;6288067;28;20268;-56
2023/01/05 08:47:33;;;;;;;2.67;2.50;;;9.30;1.00;;;;;;6281940;28;20280;-56
2023/01/05 08:50:37;;;;;;;2.10;2.10;;;9.40;1.00;;;;;;6286484;28;20600;-56
2023/01/05 08:53:40;;;;;;;2.20;2.10;;;9.40;1.00;;;;;;6277524;28;20404;-56
2023/01/05 08:56:44;;;;;;;2.30;2.23;;;9.30;1.00;;;;;;6292390;28;20320;-56
2023/01/05 08:59:47;;;;;;;2.73;2.63;;;9.30;1.00;;;;;;6278808;28;20246;-56
2023/01/05 09:02:50;;;;;;;4.43;2.57;;;9.30;1.00;;;;;;6269444;28;20230;-55
2023/01/05 09:05:58;;;;;;;2.70;2.60;;;9.30;1.00;;;;;;6281187;28;20793;-56
2023/01/05 09:09:01;;;;;;;2.37;2.37;;;9.20;1.00;;;;;;6274276;28;20255;-56
2023/01/05 09:12:06;;;;;;;2.37;2.30;;;9.20;1.00;;;;;;6278928;28;20244;-55
2023/01/05 09:15:10;;;;;;;2.23;2.20;;;9.20;1.00;;;;;;6283951;28;20233;-56
2023/01/05 09:18:13;;;;;;;2.30;2.30;;;9.20;1.00;;;;;;6292672;28;20225;-56
2023/01/05 09:21:16;;;;;;;2.20;2.20;;;9.20;1.00;;;;;;6284512;28;20240;-55
2023/01/05 09:24:19;;;;;;;2.73;2.50;;;9.20;1.00;;;;;;6288369;28;20222;-61
2023/01/05 09:27:23;;;;;;;2.23;2.23;;;9.20;1.00;;;;;;6285418;28;20319;-56
2023/01/05 09:30:26;;;;;;;2.70;2.50;;;9.40;1.00;;;;;;6281703;28;20275;-55
2023/01/05 09:33:30;;;;;;;2.43;2.43;;;9.40;1.00;;;;;;6283729;28;20526;-57
2023/01/05 09:36:33;;;;;;;2.50;2.40;;;9.50;1.00;;;;;;6278225;28;20245;-56
2023/01/05 09:39:36;;;;;;;2.57;2.40;;;9.50;1.00;;;;;;6277261;28;20240;-55
2023/01/05 09:42:45;;;;;;;2.50;2.40;;;9.50;1.00;;;;;;6285535;28;20233;-56
2023/01/05 09:45:49;;;;;;;3.83;2.50;;;9.40;1.00;;;;;;6286033;28;20237;-55
2023/01/05 09:48:56;;;;;;;2.50;2.43;;;9.60;1.00;;;;;;6287167;28;20245;-55
2023/01/05 09:52:02;;;;;;;2.43;2.43;;;9.60;1.00;;;;;;6288113;28;20237;-54
2023/01/05 09:55:14;;;;;;;2.53;2.43;;;9.70;1.00;;;;;;6283352;28;20233;-54
2023/01/05 09:58:21;;;;;;;2.80;2.60;;;9.70;1.00;;;;;;6288332;28;20606;-56
2023/01/05 10:01:33;;;;;;;2.60;2.57;;;9.70;1.00;;;;;;6274144;28;20251;-55
2023/01/05 10:04:36;;;;;;;2.67;2.57;;;9.70;1.00;;;;;;6282716;28;20776;-57
2023/01/05 10:07:44;;;;;;;2.73;2.60;;;9.70;1.00;;;;;;6289754;28;20609;-55
2023/01/05 10:14:13;;;;;;;2.93;2.77;;;9.80;1.00;;;;;;6286927;28;20864;-55
2023/01/05 10:17:18;;;;;;;2.50;2.40;;;9.80;1.00;;;;;;6297965;28;20257;-55
2023/01/05 10:20:57;;;;;;;2.87;2.77;;;9.70;1.00;;;;;;6285885;28;20368;-56
2023/01/05 10:24:18;;;;;;;2.70;2.50;;;9.70;1.00;;;;;;6294169;28;20233;-55
2023/01/05 10:27:27;;;;;;;2.90;2.60;;;9.70;1.00;;;;;;6284677;28;20606;-55
2023/01/05 10:30:48;;;;;;;3.20;2.83;;;9.70;1.00;;;;;;6283913;28;20250;-56
2023/01/05 10:33:52;;;;;;;2.80;2.60;;;9.70;1.00;;;;;;6275655;28;20457;-57
2023/01/05 10:37:19;;;;;;;4.20;2.60;;;9.80;1.00;;;;;;6280189;28;20233;-57
2023/01/05 10:40:31;;;;;;;3.10;2.60;;;9.80;1.00;;;;;;6290715;28;20325;-56
2023/01/05 10:44:01;;;;;;;2.73;2.53;;;9.70;1.00;;;;;;6288113;28;20229;-55
2023/01/05 10:47:09;;;;;;;4.70;3.20;;;9.70;1.00;;;;;;6283835;28;20222;-55
2023/01/05 10:50:31;;;;;;;2.80;2.70;;;9.70;1.00;;;;;;6287428;28;20241;-56
2023/01/05 10:53:36;;;;;;;3.20;2.93;;;9.70;1.00;;;;;;6284710;28;20298;-56
2023/01/05 10:56:39;;;;;;;3.40;3.10;;;9.70;1.00;;;;;;6277119;28;20690;-55
2023/01/05 10:59:55;;;;;;;3.10;3.00;;;9.80;1.00;;;;;;6289608;28;20230;-57
2023/01/05 11:03:03;;;;;;;4.07;3.00;;;9.90;1.00;;;;;;6289238;28;20396;-56
2023/01/05 11:06:08;;;;;;;2.70;2.60;;;9.80;1.00;;;;;;6294284;28;20245;-55
2023/01/05 11:09:17;;;;;;;3.83;2.87;;;9.90;1.00;;;;;;6277955;28;20625;-57
2023/01/05 11:12:25;;;;;;;3.07;2.70;;;9.80;1.00;;;;;;6282264;28;20237;-55
2023/01/05 11:15:30;;;;;;;3.03;2.70;;;9.90;1.00;;;;;;6290056;28;20240;-56
2023/01/05 11:18:47;;;;;;;2.80;2.60;;;9.90;1.00;;;;;;6286148;28;20293;-56
2023/01/05 11:21:50;;;;;;;4.13;3.00;;;9.90;1.00;;;;;;6291248;28;20379;-55
2023/01/05 11:25:25;;;;;;;5.57;2.90;;;9.90;1.00;;;;;;6280108;28;20246;-55
2023/01/05 11:28:29;;;;;;;3.57;2.73;;;9.90;1.00;;;;;;6289009;28;20240;-56
2023/01/05 11:31:35;;;;;;;5.10;2.70;;;9.90;1.00;;;;;;6285949;28;20240;-56
2023/01/05 11:34:42;;;;;;;5.43;2.70;;;9.90;1.00;;;;;;6279378;28;20249;-57
2023/01/05 11:37:46;;;;;;;3.20;2.90;;;9.90;1.00;;;;;;6283367;28;20812;-56
2023/01/05 11:40:48;;;;;;;3.13;2.97;;;9.90;1.00;;;;;;6278645;28;20240;-54
2023/01/05 11:43:53;;;;;;;3.10;2.90;;;9.90;1.00;;;;;;6286746;28;20233;-55
2023/01/05 11:46:56;;;;;;;3.07;2.80;;;9.90;1.00;;;;;;6286803;28;20239;-56
2023/01/05 11:50:05;;;;;;;5.33;3.30;;;9.90;1.00;;;;;;6280684;28;20439;-56
2023/01/05 11:53:24;;;;;;;3.27;3.03;;;9.90;1.00;;;;;;6282021;28;20313;-56
2023/01/05 11:56:27;;;;;;;5.13;3.17;;;10.00;1.00;;;;;;6283810;28;20702;-57
2023/01/05 11:59:30;;;;;;;3.77;2.60;;;10.00;1.00;;;;;;6283819;28;20244;-56
2023/01/05 12:03:02;;;;;;;5.27;3.00;;;10.00;1.00;;;;;;6279959;28;20237;-57
2023/01/05 12:06:17;;;;;;;3.57;3.37;;;10.10;1.00;;;;;;6276922;28;20312;-55
2023/01/05 12:09:25;;;;;;;4.00;2.87;;;10.10;1.00;;;;;;6282901;28;20714;-56
2023/01/05 12:12:43;;;;;;;3.13;2.90;;;10.20;1.00;;;;;;6282153;28;20715;-56
2023/01/05 12:16:09;;;;;;;5.57;2.97;;;10.20;1.00;;;;;;6286315;28;20377;-57
2023/01/05 12:19:44;;;;;;;3.93;2.93;;;10.20;1.00;;;;;;6280827;28;20236;-55
2023/01/05 12:23:15;;;;;;;3.03;2.83;;;10.30;1.00;;;;;;6281344;28;20418;-55
2023/01/05 12:26:23;;;;;;;3.10;2.80;;;10.30;1.00;;;;;;6282102;28;20291;-56
2023/01/05 12:29:55;;;;;;;4.40;2.97;;;10.40;1.00;;;;;;6283085;28;20297;-57
2023/01/05 12:33:49;;;;;;;4.87;3.10;;;10.50;1.00;;;;;;6278992;28;20826;-56
2023/01/05 12:37:29;;;;;;;3.83;2.70;;;10.50;1.00;;;;;;6279547;28;20343;-56
2023/01/05 12:40:47;;;;;;;4.83;3.27;;;10.40;1.00;;;;;;6286895;28;20241;-56
2023/01/05 12:44:04;;;;;;;2.90;2.53;;;10.40;1.00;;;;;;6284476;28;20332;-58
2023/01/05 12:47:24;;;;;;;3.00;2.70;;;10.30;1.00;;;;;;6291101;28;20681;-56
2023/01/05 12:50:35;;;;;;;4.80;2.77;;;10.20;1.00;;;;;;6275017;28;20236;-56
2023/01/05 12:53:44;;;;;;;2.90;2.70;;;10.10;1.00;;;;;;6288719;28;20628;-56
2023/01/05 12:56:53;;;;;;;2.87;2.67;;;10.20;1.00;;;;;;6281663;28;20764;-55
2023/01/05 13:00:00;;;;;;;3.87;2.80;;;10.20;1.00;;;;;;6285570;28;20347;-55
2023/01/05 13:03:10;;;;;;;2.80;2.70;;;10.20;1.00;;;;;;6279969;28;20383;-55
2023/01/05 13:06:17;;;;;;;2.67;2.57;;;10.20;1.00;;;;;;6280329;28;20609;-55
2023/01/05 13:09:24;;;;;;;2.63;2.53;;;10.20;1.00;;;;;;6288650;28;20359;-57
2023/01/05 13:12:29;;;;;;;2.20;2.10;;;10.20;1.00;;;;;;6284091;28;20240;-56
2023/01/05 13:15:38;;;;;;;6.90;3.00;;;10.20;1.00;;;;;;6288374;28;21338;-55
2023/01/05 13:18:47;;;;;;;3.03;2.60;;;10.20;1.00;;;;;;6283234;28;20241;-56
2023/01/05 13:21:51;;;;;;;3.07;2.77;;;10.20;1.00;;;;;;6282206;28;20247;-55
2023/01/05 13:24:59;;;;;;;2.87;2.67;;;10.20;1.00;;;;;;6287676;28;20229;-56
2023/01/05 13:28:04;;;;;;;3.13;2.83;;;10.10;1.00;;;;;;6289890;28;20792;-56
2023/01/05 13:31:33;;;;;;;2.97;2.77;;;10.00;1.00;;;;;;6289787;28;20245;-56
2023/01/05 13:34:57;;;;;;;2.73;2.57;;;10.00;1.00;;;;;;6281573;28;20378;-55
2023/01/05 13:38:24;;;;;;;2.73;2.60;;;9.90;1.00;;;;;;6285239;28;20614;-57
2023/01/05 13:41:44;;;;;;;3.03;2.73;;;9.80;1.00;;;;;;6287896;28;20237;-56
2023/01/05 13:45:21;;;;;;;2.67;2.57;;;9.80;1.00;;;;;;6287813;28;20442;-55
2023/01/05 13:48:50;;;;;;;3.17;2.90;;;9.80;1.00;;;;;;6286641;28;20228;-56
2023/01/05 13:52:17;;;;;;;3.60;3.37;;;9.70;1.00;;;;;;6286035;28;20396;-56
2023/01/05 13:55:22;;;;;;;4.33;2.93;;;9.70;1.00;;;;;;6287059;28;20237;-55
2023/01/05 13:58:35;;;;;;;2.90;2.70;;;9.60;1.00;;;;;;6276308;28;20238;-55
2023/01/05 14:01:46;;;;;;;3.10;2.50;;;9.50;1.00;;;;;;6288307;28;20681;-57
2023/01/05 14:04:51;;;;;;;4.30;2.70;;;9.40;1.00;;;;;;6283817;28;20242;-55
2023/01/05 14:07:55;;;;;;;4.00;2.60;;;9.30;1.00;;;;;;6275881;28;20255;-56
2023/01/05 14:11:11;;;;;;;2.87;2.67;;;9.20;1.00;;;;;;6286531;28;20237;-57
2023/01/05 14:14:27;;;;;;;3.50;2.80;;;9.20;1.00;;;;;;6280367;28;20229;-56
2023/01/05 14:17:54;;;;;;;2.60;2.50;;;9.10;1.00;;;;;;6288868;28;20240;-56
2023/01/05 14:21:00;;;;;;;5.97;2.80;;;9.10;1.00;;;;;;6284585;28;20610;-55
2023/01/05 14:24:03;;;;;;;4.63;2.80;;;9.00;1.00;;;;;;6283780;28;20566;-55
2023/01/05 14:27:08;;;;;;;3.17;2.90;;;8.90;1.00;;;;;;6285073;28;20225;-56
2023/01/05 14:30:22;;;;;;;2.87;2.70;;;8.80;1.00;;;;;;6288512;28;20225;-56
2023/01/05 14:33:25;;;;;;;3.30;2.90;;;8.70;1.00;;;;;;6280914;28;20257;-55
2023/01/05 14:36:34;;;;;;;3.00;2.70;;;8.70;1.00;;;;;;6270092;28;20233;-56
2023/01/05 14:39:43;;;;;;;2.93;2.67;;;8.70;1.00;;;;;;6278012;28;20234;-56
2023/01/05 14:42:49;;;;;;;3.77;2.70;;;8.50;1.00;;;;;;6279087;28;20238;-56
2023/01/05 14:46:02;;;;;;;3.07;2.63;;;8.60;1.00;;;;;;6286281;28;20233;-55
2023/01/05 14:49:10;;;;;;;3.07;2.97;;;8.60;1.00;;;;;;6280371;28;20243;-56
2023/01/05 14:52:21;;;;;;;3.30;2.70;;;8.50;1.00;;;;;;6284272;28;22522;-58
2023/01/05 14:55:27;;;;;;;2.93;2.73;;;8.50;1.00;;;;;;6283447;28;20246;-56
2023/01/05 14:59:14;;;;;;;2.80;2.70;;;8.50;1.00;;;;;;6287434;28;20234;-58
2023/01/05 15:02:22;;;;;;;3.13;2.93;;;8.50;1.00;;;;;;6286621;28;20229;-55
2023/01/05 15:05:26;;;;;;;2.97;2.70;;;8.40;1.00;;;;;;6275798;28;20234;-56
2023/01/05 15:09:07;;;;;;;3.27;3.00;;;8.40;1.00;;;;;;6285120;28;20357;-56
2023/01/05 15:12:34;;;;;;;3.23;3.03;;;8.40;1.00;;;;;;6288649;28;20232;-55
2023/01/05 15:15:45;;;;;;;2.73;2.53;;;8.30;1.00;;;;;;6287335;28;20395;-60
2023/01/05 15:19:17;;;;;;;3.53;2.83;;;8.20;1.00;;;;;;6287795;28;20237;-58
2023/01/05 15:22:37;;;;;;;3.47;3.00;;;8.30;1.00;;;;;;6287213;28;20232;-56
2023/01/05 15:26:07;;;;;;;2.80;2.60;;;8.20;1.00;;;;;;6288061;28;20267;-57
2023/01/05 15:29:36;;;;;;;3.10;2.80;;;8.10;1.00;;;;;;6281663;28;20241;-57
2023/01/05 15:32:42;;;;;;;2.90;2.80;;;8.10;1.00;;;;;;6293071;28;20240;-57
2023/01/05 15:35:52;;;;;;;3.60;3.40;;;8.10;1.00;;;;;;6268292;28;20254;-57
2023/01/05 15:38:56;;;;;;;3.20;3.00;;;8.10;1.00;;;;;;6287690;28;20278;-58
2023/01/05 15:42:06;;;;;;;3.03;2.80;;;8.10;1.00;;;;;;6276425;28;20229;-55
2023/01/05 15:45:18;;;;;;;6.83;3.03;;;8.10;1.00;;;;;;6282037;28;20228;-57
2023/01/05 15:48:27;;;;;;;2.90;2.90;;;8.10;1.00;;;;;;6286070;28;20233;-58
2023/01/05 15:51:32;;;;;;;3.10;2.90;;;8.00;1.00;;;;;;6286947;28;20234;-56
2023/01/05 15:54:35;;;;;;;3.00;2.87;;;8.00;1.00;;;;;;6281642;28;20229;-56
2023/01/05 15:57:40;;;;;;;3.30;2.77;;;7.90;1.00;;;;;;6277390;28;20244;-56
2023/01/05 16:00:43;;;;;;;3.20;3.00;;;7.90;1.00;;;;;;6286302;28;20233;-54
2023/01/05 16:03:47;;;;;;;5.40;3.03;;;7.90;1.00;;;;;;6285617;28;20233;-56
2023/01/05 16:06:57;;;;;;;3.37;3.07;;;7.90;1.00;;;;;;6291933;28;20324;-56
2023/01/05 16:10:00;;;;;;;3.13;3.03;;;7.90;1.00;;;;;;6288586;28;20241;-57
2023/01/05 16:13:11;;;;;;;3.03;2.83;;;7.80;1.00;;;;;;6283433;28;20383;-55
2023/01/05 16:16:19;;;;;;;3.80;3.50;;;7.80;1.00;;;;;;6278703;28;20237;-57
2023/01/05 16:19:46;;;;;;;3.53;3.23;;;7.70;1.00;;;;;;6284740;28;20244;-56
2023/01/05 16:22:53;;;;;;;3.53;3.30;;;7.60;1.00;;;;;;6282886;28;20237;-57
2023/01/05 16:26:03;;;;;;;4.43;3.57;;;7.60;1.00;;;;;;6281649;28;20248;-55
2023/01/05 16:29:21;;;;;;;3.30;3.10;;;7.60;1.00;;;;;;6281015;28;20786;-55
2023/01/05 16:32:35;;;;;;;3.93;3.30;;;7.60;1.00;;;;;;6282518;28;20260;-56
2023/01/05 16:35:43;;;;;;;3.90;3.60;;;7.50;1.00;;;;;;6270639;28;20705;-58
2023/01/05 16:38:46;;;;;;;4.13;3.50;;;7.50;1.00;;;;;;6263485;28;20234;-57
2023/01/05 16:45:19;;;;;;;5.03;3.00;;;7.50;1.00;;;;;;6281732;28;20640;-57
2023/01/05 16:48:46;;;;;;;3.87;3.17;;;7.60;1.00;;;;;;6275759;28;20542;-57
2023/01/05 16:51:50;;;;;;;3.67;3.47;;;7.50;1.00;;;;;;6282481;28;20233;-55
2023/01/05 16:55:19;;;;;;;3.47;3.17;;;7.50;1.00;;;;;;6284247;28;20240;-57
2023/01/05 16:58:35;;;;;;;3.70;3.40;;;7.50;1.00;;;;;;6280825;28;20359;-57
2023/01/05 17:01:43;;;;;;;4.80;2.90;;;7.50;1.00;;;;;;6285687;28;20308;-58
2023/01/05 17:04:47;;;;;;;6.13;3.23;;;7.50;1.00;;;;;;6283796;28;20631;-56
2023/01/05 17:08:04;;;;;;;3.30;3.00;;;7.50;1.00;;;;;;6288752;28;20244;-56
2023/01/05 17:11:11;;;;;;;3.70;3.50;;;7.40;1.00;;;;;;6285847;28;20236;-55
2023/01/05 17:14:15;;;;;;;3.20;3.10;;;7.40;1.00;;;;;;6274414;28;20379;-57
2023/01/05 17:17:19;;;;;;;3.30;3.20;;;7.50;1.00;;;;;;6281180;28;20233;-57